createdAt,value
2019-01-06T00:00:48.673Z,0.00
2019-01-06T00:01:46.605Z,0.00
2019-01-06T00:02:45.116Z,0.00
2019-01-06T00:03:44.081Z,0.00
2019-01-06T00:04:44.079Z,0.00
2019-01-06T00:05:47.686Z,0.00
2019-01-06T00:06:45.645Z,0.00
2019-01-06T00:07:44.646Z,0.00
2019-01-06T00:08:45.680Z,0.00
2019-01-06T00:09:45.678Z,0.00
2019-01-06T00:10:45.609Z,0.00
2019-01-06T00:11:47.136Z,0.00
2019-01-06T00:12:43.986Z,0.00
2019-01-06T00:13:46.683Z,0.00
2019-01-06T00:14:43.969Z,0.00
2019-01-06T00:15:46.662Z,0.00
2019-01-06T00:16:44.171Z,0.00
2019-01-06T00:17:44.660Z,0.00
2019-01-06T00:18:44.652Z,0.00
2019-01-06T00:19:45.601Z,0.00
2019-01-06T00:20:46.648Z,0.00
2019-01-06T00:21:43.907Z,0.00
2019-01-06T00:22:43.882Z,0.00
2019-01-06T00:23:43.912Z,0.00
2019-01-06T00:24:43.924Z,0.00
2019-01-06T00:25:48.653Z,0.00
2019-01-06T00:26:44.857Z,0.00
2019-01-06T00:27:43.827Z,0.00
2019-01-06T00:28:47.637Z,0.00
2019-01-06T00:29:46.597Z,0.00
2019-01-06T00:30:46.635Z,0.00
2019-01-06T00:31:46.640Z,0.00
2019-01-06T00:32:45.830Z,0.00
2019-01-06T00:33:43.872Z,0.00
2019-01-06T00:34:43.876Z,0.00
2019-01-06T00:35:43.797Z,0.00
2019-01-06T00:36:43.806Z,0.00
2019-01-06T00:37:43.832Z,0.00
2019-01-06T00:38:44.906Z,0.00
2019-01-06T00:39:44.680Z,0.00
2019-01-06T00:40:46.683Z,0.00
2019-01-06T00:41:46.718Z,0.00
2019-01-06T00:42:48.752Z,0.00
2019-01-06T00:43:44.659Z,0.00
2019-01-06T00:44:45.656Z,0.00
2019-01-06T00:45:46.119Z,0.00
2019-01-06T00:46:44.143Z,0.00
2019-01-06T00:47:43.625Z,0.00
2019-01-06T00:48:45.125Z,0.00
2019-01-06T00:50:18.113Z,0.00
2019-01-06T00:50:46.103Z,0.00
2019-01-06T00:52:04.714Z,0.00
2019-01-06T00:52:43.597Z,0.00
2019-01-06T00:53:43.607Z,0.00
2019-01-06T00:54:43.577Z,0.00
2019-01-06T00:55:45.634Z,0.00
2019-01-06T00:56:44.185Z,0.00
2019-01-06T00:57:43.578Z,0.00
2019-01-06T00:58:44.222Z,0.00
2019-01-06T00:59:45.246Z,0.00
2019-01-06T01:00:45.802Z,0.00
2019-01-06T01:01:44.103Z,0.00
2019-01-06T01:02:51.284Z,0.00
2019-01-06T01:03:46.129Z,0.00
2019-01-06T01:04:43.483Z,0.00
2019-01-06T01:05:44.174Z,0.00
2019-01-06T01:06:48.450Z,0.00
2019-01-06T01:07:44.151Z,0.00
2019-01-06T01:08:45.153Z,0.00
2019-01-06T01:09:44.157Z,0.00
2019-01-06T01:10:44.149Z,0.00
2019-01-06T01:11:43.369Z,0.00
2019-01-06T01:12:46.131Z,0.00
2019-01-06T01:13:45.122Z,0.00
2019-01-06T01:14:46.152Z,0.00
2019-01-06T01:15:45.145Z,0.00
2019-01-06T01:16:47.196Z,0.00
2019-01-06T01:17:43.323Z,0.00
2019-01-06T01:18:43.296Z,0.00
2019-01-06T01:19:44.282Z,0.00
2019-01-06T01:20:54.369Z,0.00
2019-01-06T01:21:45.150Z,0.00
2019-01-06T01:22:43.258Z,0.00
2019-01-06T01:23:46.173Z,0.00
2019-01-06T01:24:43.229Z,0.00
2019-01-06T01:25:45.117Z,0.00
2019-01-06T01:26:48.520Z,0.00
2019-01-06T01:27:44.185Z,0.00
2019-01-06T01:28:44.193Z,0.00
2019-01-06T01:29:46.152Z,0.00
2019-01-06T01:30:47.621Z,0.00
2019-01-06T01:31:45.748Z,0.00
2019-01-06T01:32:43.126Z,0.00
2019-01-06T01:33:44.655Z,0.00
2019-01-06T01:34:43.117Z,0.00
2019-01-06T01:35:47.167Z,0.00
2019-01-06T01:36:43.097Z,0.00
2019-01-06T01:37:43.080Z,0.00
2019-01-06T01:38:45.118Z,0.00
2019-01-06T01:39:43.067Z,0.00
2019-01-06T01:40:45.125Z,0.00
2019-01-06T01:41:44.693Z,0.00
2019-01-06T01:42:43.668Z,0.00
2019-01-06T01:43:45.673Z,0.00
2019-01-06T01:44:44.008Z,0.00
2019-01-06T01:45:47.986Z,0.00
2019-01-06T01:46:44.669Z,0.00
2019-01-06T01:47:44.119Z,0.00
2019-01-06T01:48:47.659Z,0.00
2019-01-06T01:49:42.953Z,0.00
2019-01-06T01:50:42.948Z,0.00
2019-01-06T01:51:43.936Z,0.00
2019-01-06T01:52:42.930Z,0.00
2019-01-06T01:53:48.633Z,0.00
2019-01-06T01:54:43.627Z,0.00
2019-01-06T01:55:44.689Z,0.00
2019-01-06T01:56:42.880Z,0.00
2019-01-06T01:57:43.663Z,0.00
2019-01-06T01:58:43.881Z,0.00
2019-01-06T02:00:05.650Z,0.00
2019-01-06T02:00:44.625Z,0.00
2019-01-06T02:01:43.648Z,0.00
2019-01-06T02:02:45.657Z,0.00
2019-01-06T02:03:44.117Z,0.00
2019-01-06T02:04:44.126Z,0.00
2019-01-06T02:06:36.901Z,0.00
2019-01-06T02:07:47.534Z,0.00
2019-01-06T02:08:36.386Z,0.00
2019-01-06T02:09:35.410Z,0.00
2019-01-06T02:10:37.907Z,0.00
2019-01-06T02:11:36.412Z,0.00
2019-01-06T02:12:36.850Z,0.00
2019-01-06T02:13:38.883Z,0.00
2019-01-06T02:14:35.921Z,0.00
2019-01-06T02:15:43.498Z,0.00
2019-01-06T02:16:37.393Z,0.00
2019-01-06T02:17:36.370Z,0.00
2019-01-06T02:18:35.319Z,0.00
2019-01-06T02:19:41.266Z,4.00
2019-01-06T02:20:35.305Z,4.00
2019-01-06T02:21:36.287Z,0.00
2019-01-06T02:22:36.274Z,0.00
2019-01-06T02:23:36.887Z,4.00
2019-01-06T02:24:35.263Z,0.00
2019-01-06T02:25:35.226Z,4.00
2019-01-06T02:26:35.238Z,4.00
2019-01-06T02:27:36.341Z,4.00
2019-01-06T02:28:36.922Z,4.00
2019-01-06T02:29:35.885Z,4.00
2019-01-06T02:30:47.100Z,4.00
2019-01-06T02:31:35.167Z,0.00
2019-01-06T02:32:35.169Z,4.00
2019-01-06T02:33:35.167Z,0.00
2019-01-06T02:34:35.151Z,0.00
2019-01-06T02:35:37.368Z,0.00
2019-01-06T02:36:36.941Z,0.00
2019-01-06T02:37:35.103Z,0.00
2019-01-06T02:38:36.925Z,0.00
2019-01-06T02:39:35.856Z,0.00
2019-01-06T02:40:35.115Z,0.00
2019-01-06T02:41:35.064Z,0.00
2019-01-06T02:42:36.892Z,0.00
2019-01-06T02:43:36.884Z,0.00
2019-01-06T02:44:35.047Z,0.00
2019-01-06T02:45:35.064Z,0.00
2019-01-06T02:46:36.884Z,0.00
2019-01-06T02:47:35.023Z,0.00
2019-01-06T02:48:35.866Z,0.00
2019-01-06T02:49:41.419Z,0.00
2019-01-06T02:50:34.978Z,0.00
2019-01-06T02:51:38.887Z,0.00
2019-01-06T02:52:34.961Z,0.00
2019-01-06T02:53:37.042Z,0.00
2019-01-06T02:54:34.936Z,0.00
2019-01-06T02:55:37.859Z,0.00
2019-01-06T02:56:37.890Z,0.00
2019-01-06T02:57:35.926Z,0.00
2019-01-06T02:58:35.903Z,0.00
2019-01-06T02:59:36.350Z,0.00
2019-01-06T03:00:34.860Z,0.00
2019-01-06T03:01:41.405Z,0.00
2019-01-06T03:02:36.394Z,0.00
2019-01-06T03:03:36.401Z,0.00
2019-01-06T03:04:34.813Z,0.00
2019-01-06T03:05:39.362Z,0.00
2019-01-06T03:06:34.804Z,0.00
2019-01-06T03:07:35.810Z,0.00
2019-01-06T03:08:41.025Z,0.00
2019-01-06T03:09:34.919Z,0.00
2019-01-06T03:10:35.393Z,0.00
2019-01-06T03:11:39.412Z,0.00
2019-01-06T03:12:37.388Z,0.00
2019-01-06T03:13:34.765Z,0.00
2019-01-06T03:14:35.359Z,0.00
2019-01-06T03:15:35.404Z,0.00
2019-01-06T03:16:34.689Z,0.00
2019-01-06T03:17:35.358Z,0.00
2019-01-06T03:18:38.391Z,0.00
2019-01-06T03:19:34.672Z,0.00
2019-01-06T03:20:35.882Z,0.00
2019-01-06T03:21:36.401Z,0.00
2019-01-06T03:22:35.387Z,0.00
2019-01-06T03:23:34.620Z,0.00
2019-01-06T03:24:34.614Z,0.00
2019-01-06T03:25:35.617Z,0.00
2019-01-06T03:26:35.404Z,0.00
2019-01-06T03:27:34.591Z,0.00
2019-01-06T03:28:37.357Z,0.00
2019-01-06T03:29:35.576Z,0.00
2019-01-06T03:30:37.379Z,0.00
2019-01-06T03:31:39.370Z,0.00
2019-01-06T03:32:35.409Z,0.00
2019-01-06T03:33:34.528Z,0.00
2019-01-06T03:34:34.519Z,0.00
2019-01-06T03:35:34.514Z,0.00
2019-01-06T03:36:34.485Z,0.00
2019-01-06T03:37:35.895Z,0.00
2019-01-06T03:38:40.403Z,0.00
2019-01-06T03:39:35.446Z,0.00
2019-01-06T03:40:34.481Z,0.00
2019-01-06T03:41:38.433Z,0.00
2019-01-06T03:42:37.863Z,0.00
2019-01-06T03:43:36.464Z,0.00
2019-01-06T03:44:40.404Z,0.00
2019-01-06T03:45:35.859Z,0.00
2019-01-06T03:46:36.394Z,0.00
2019-01-06T03:47:36.841Z,0.00
2019-01-06T03:48:35.355Z,0.00
2019-01-06T03:49:41.896Z,0.00
2019-01-06T03:50:36.364Z,0.00
2019-01-06T03:51:34.328Z,0.00
2019-01-06T03:52:36.903Z,0.00
2019-01-06T03:53:52.398Z,0.00
2019-01-06T03:54:35.324Z,0.00
2019-01-06T03:55:35.290Z,0.00
2019-01-06T03:56:34.883Z,0.00
2019-01-06T03:57:34.893Z,0.00
2019-01-06T03:58:36.853Z,0.00
2019-01-06T03:59:34.928Z,0.00
2019-01-06T04:00:34.238Z,0.00
2019-01-06T04:01:34.212Z,0.00
2019-01-06T04:02:35.908Z,0.00
2019-01-06T04:03:35.190Z,0.00
2019-01-06T04:04:34.186Z,0.00
2019-01-06T04:05:34.181Z,0.00
2019-01-06T04:06:34.171Z,0.00
2019-01-06T04:07:34.140Z,0.00
2019-01-06T04:08:35.857Z,0.00
2019-01-06T04:09:36.845Z,0.00
2019-01-06T04:10:35.128Z,0.00
2019-01-06T04:11:34.124Z,0.00
2019-01-06T04:12:35.124Z,0.00
2019-01-06T04:13:36.370Z,0.00
2019-01-06T04:14:34.095Z,0.00
2019-01-06T04:15:34.081Z,0.00
2019-01-06T04:16:34.066Z,0.00
2019-01-06T04:17:35.478Z,0.00
2019-01-06T04:18:34.905Z,0.00
2019-01-06T04:19:35.923Z,0.00
2019-01-06T04:20:36.893Z,0.00
2019-01-06T04:21:34.005Z,0.00
2019-01-06T04:22:33.988Z,0.00
2019-01-06T04:23:34.010Z,0.00
2019-01-06T04:24:33.962Z,0.00
2019-01-06T04:25:33.963Z,0.00
2019-01-06T04:26:35.897Z,0.00
2019-01-06T04:27:33.929Z,0.00
2019-01-06T04:28:35.864Z,0.00
2019-01-06T04:29:34.900Z,0.00
2019-01-06T04:30:33.896Z,0.00
2019-01-06T04:31:33.901Z,0.00
2019-01-06T04:32:34.874Z,0.00
2019-01-06T04:33:33.877Z,0.00
2019-01-06T04:34:33.870Z,0.00
2019-01-06T04:35:34.873Z,0.00
2019-01-06T04:36:33.852Z,0.00
2019-01-06T04:37:33.888Z,0.00
2019-01-06T04:38:34.822Z,0.00
2019-01-06T04:39:33.811Z,0.00
2019-01-06T04:40:34.404Z,0.00
2019-01-06T04:41:33.819Z,0.00
2019-01-06T04:42:33.775Z,0.00
2019-01-06T04:43:33.769Z,0.00
2019-01-06T04:44:33.767Z,0.00
2019-01-06T04:45:34.413Z,0.00
2019-01-06T04:46:33.755Z,0.00
2019-01-06T04:47:33.775Z,0.00
2019-01-06T04:48:34.415Z,0.00
2019-01-06T04:49:33.699Z,0.00
2019-01-06T04:50:34.402Z,0.00
2019-01-06T04:51:33.704Z,0.00
2019-01-06T04:52:34.924Z,0.00
2019-01-06T04:53:33.659Z,0.00
2019-01-06T04:54:33.643Z,0.00
2019-01-06T04:55:34.401Z,0.00
2019-01-06T04:56:33.632Z,0.00
2019-01-06T04:57:33.618Z,0.00
2019-01-06T04:58:33.906Z,0.00
2019-01-06T04:59:33.598Z,0.00
2019-01-06T05:00:35.363Z,0.00
2019-01-06T05:01:33.593Z,0.00
2019-01-06T05:02:33.575Z,0.00
2019-01-06T05:03:33.568Z,0.00
2019-01-06T05:04:33.565Z,0.00
2019-01-06T05:05:33.525Z,0.00
2019-01-06T05:06:33.510Z,0.00
2019-01-06T05:07:33.504Z,0.00
2019-01-06T05:08:34.413Z,0.00
2019-01-06T05:09:34.348Z,0.00
2019-01-06T05:10:35.402Z,0.00
2019-01-06T05:11:33.509Z,0.00
2019-01-06T05:12:33.467Z,0.00
2019-01-06T05:13:33.466Z,0.00
2019-01-06T05:14:33.455Z,0.00
2019-01-06T05:15:34.373Z,0.00
2019-01-06T05:16:33.406Z,0.00
2019-01-06T05:18:26.446Z,0.00
2019-01-06T05:19:26.414Z,0.00
2019-01-06T05:20:26.415Z,0.00
2019-01-06T05:21:27.024Z,0.00
2019-01-06T05:22:26.414Z,0.00
2019-01-06T05:23:26.405Z,0.00
2019-01-06T05:24:26.373Z,0.00
2019-01-06T05:25:26.396Z,0.00
2019-01-06T05:26:26.978Z,0.00
2019-01-06T05:27:26.473Z,0.00
2019-01-06T05:28:26.345Z,0.00
2019-01-06T05:29:29.014Z,0.00
2019-01-06T05:30:26.304Z,0.00
2019-01-06T05:31:26.305Z,0.00
2019-01-06T05:32:26.297Z,0.00
2019-01-06T05:33:28.999Z,0.00
2019-01-06T05:34:28.018Z,0.00
2019-01-06T05:35:28.004Z,0.00
2019-01-06T05:36:26.248Z,0.00
2019-01-06T05:37:26.246Z,0.00
2019-01-06T05:38:28.000Z,0.00
2019-01-06T05:39:26.254Z,0.00
2019-01-06T05:40:26.210Z,0.00
2019-01-06T05:41:26.194Z,0.00
2019-01-06T05:42:26.187Z,0.00
2019-01-06T05:43:28.999Z,0.00
2019-01-06T05:44:26.203Z,0.00
2019-01-06T05:45:28.007Z,0.00
2019-01-06T05:46:26.175Z,0.00
2019-01-06T05:47:26.122Z,0.00
2019-01-06T05:48:26.122Z,0.00
2019-01-06T05:49:26.130Z,0.00
2019-01-06T05:50:27.024Z,0.00
2019-01-06T05:51:26.088Z,0.00
2019-01-06T05:52:26.102Z,0.00
2019-01-06T05:53:26.063Z,0.00
2019-01-06T05:54:27.006Z,0.00
2019-01-06T05:55:29.032Z,0.00
2019-01-06T05:56:26.049Z,0.00
2019-01-06T05:57:26.016Z,0.00
2019-01-06T05:58:28.998Z,0.00
2019-01-06T05:59:26.006Z,0.00
2019-01-06T06:00:26.002Z,0.00
2019-01-06T06:01:25.986Z,0.00
2019-01-06T06:02:26.002Z,0.00
2019-01-06T06:03:25.975Z,0.00
2019-01-06T06:04:25.944Z,0.00
2019-01-06T06:05:25.938Z,0.00
2019-01-06T06:06:25.971Z,0.00
2019-01-06T06:07:25.915Z,0.00
2019-01-06T06:08:27.536Z,0.00
2019-01-06T06:09:26.901Z,0.00
2019-01-06T06:10:25.889Z,0.00
2019-01-06T06:11:25.899Z,0.00
2019-01-06T06:12:27.015Z,0.00
2019-01-06T06:13:27.223Z,0.00
2019-01-06T06:14:26.036Z,0.00
2019-01-06T06:15:27.503Z,0.00
2019-01-06T06:16:25.829Z,0.00
2019-01-06T06:17:26.511Z,0.00
2019-01-06T06:18:26.795Z,0.00
2019-01-06T06:19:26.490Z,0.00
2019-01-06T06:20:25.803Z,0.00
2019-01-06T06:21:25.785Z,0.00
2019-01-06T06:22:25.757Z,0.00
2019-01-06T06:23:25.757Z,0.00
2019-01-06T06:24:25.745Z,0.00
2019-01-06T06:25:27.498Z,0.00
2019-01-06T06:26:25.756Z,0.00
2019-01-06T06:27:25.703Z,0.00
2019-01-06T06:28:25.709Z,0.00
2019-01-06T06:29:25.694Z,0.00
2019-01-06T06:30:27.508Z,0.00
2019-01-06T06:31:25.691Z,0.00
2019-01-06T06:32:25.674Z,0.00
2019-01-06T06:33:25.664Z,0.00
2019-01-06T06:34:27.509Z,0.00
2019-01-06T06:35:26.636Z,0.00
2019-01-06T06:36:25.637Z,0.00
2019-01-06T06:37:26.025Z,0.00
2019-01-06T06:38:25.597Z,0.00
2019-01-06T06:39:25.586Z,0.00
2019-01-06T06:40:25.594Z,0.00
2019-01-06T06:41:27.516Z,0.00
2019-01-06T06:42:25.572Z,0.00
2019-01-06T06:43:26.538Z,0.00
2019-01-06T06:44:26.485Z,4.00
2019-01-06T06:45:26.478Z,0.00
2019-01-06T06:46:25.502Z,0.00
2019-01-06T06:47:25.520Z,4.00
2019-01-06T06:48:25.501Z,0.00
2019-01-06T06:49:28.022Z,4.00
2019-01-06T06:50:25.473Z,4.00
2019-01-06T06:51:27.029Z,4.00
2019-01-06T06:52:25.445Z,4.00
2019-01-06T06:53:25.444Z,8.00
2019-01-06T06:54:25.504Z,8.00
2019-01-06T06:55:33.170Z,8.00
2019-01-06T06:56:32.630Z,8.00
2019-01-06T06:57:25.408Z,8.00
2019-01-06T06:58:25.385Z,12.00
2019-01-06T06:59:25.385Z,16.00
2019-01-06T07:00:29.065Z,16.00
2019-01-06T07:01:25.356Z,16.00
2019-01-06T07:02:29.080Z,20.00
2019-01-06T07:03:25.338Z,20.00
2019-01-06T07:04:26.068Z,24.00
2019-01-06T07:05:25.305Z,24.00
2019-01-06T07:06:25.316Z,28.00
2019-01-06T07:07:27.116Z,32.00
2019-01-06T07:08:26.304Z,36.00
2019-01-06T07:09:25.261Z,44.00
2019-01-06T07:10:25.260Z,44.00
2019-01-06T07:11:25.250Z,52.00
2019-01-06T07:12:25.307Z,56.00
2019-01-06T07:13:25.227Z,60.00
2019-01-06T07:14:26.059Z,64.00
2019-01-06T07:15:25.204Z,68.00
2019-01-06T07:16:25.190Z,72.00
2019-01-06T07:17:25.209Z,80.00
2019-01-06T07:18:28.057Z,84.00
2019-01-06T07:19:25.167Z,96.00
2019-01-06T07:20:27.116Z,104.00
2019-01-06T07:21:25.163Z,104.00
2019-01-06T07:22:25.127Z,112.00
2019-01-06T07:23:25.623Z,124.00
2019-01-06T07:24:25.158Z,132.00
2019-01-06T07:25:25.114Z,140.00
2019-01-06T07:26:26.080Z,152.00
2019-01-06T07:27:25.100Z,172.00
2019-01-06T07:28:25.124Z,184.00
2019-01-06T07:29:26.587Z,192.00
2019-01-06T07:30:25.058Z,200.00
2019-01-06T07:31:25.108Z,220.00
2019-01-06T07:32:25.027Z,240.00
2019-01-06T07:33:25.012Z,240.00
2019-01-06T07:34:25.006Z,260.00
2019-01-06T07:35:26.610Z,264.00
2019-01-06T07:36:24.979Z,296.00
2019-01-06T07:37:24.989Z,304.00
2019-01-06T07:38:25.001Z,308.00
2019-01-06T07:39:24.944Z,296.00
2019-01-06T07:41:17.980Z,320.00
2019-01-06T07:42:19.546Z,328.00
2019-01-06T07:43:19.542Z,348.00
2019-01-06T07:44:18.990Z,356.00
2019-01-06T07:45:17.918Z,380.00
2019-01-06T07:46:17.915Z,420.00
2019-01-06T07:47:17.932Z,468.00
2019-01-06T07:48:18.555Z,492.00
2019-01-06T07:49:17.881Z,504.00
2019-01-06T07:50:17.900Z,508.00
2019-01-06T07:51:17.869Z,520.00
2019-01-06T07:52:20.517Z,516.00
2019-01-06T07:53:19.606Z,540.00
2019-01-06T07:54:18.830Z,560.00
2019-01-06T07:55:17.865Z,672.00
2019-01-06T07:56:17.810Z,688.00
2019-01-06T07:57:17.796Z,660.00
2019-01-06T07:58:17.790Z,676.00
2019-01-06T07:59:17.792Z,764.00
2019-01-06T08:00:18.765Z,820.00
2019-01-06T08:01:17.770Z,872.00
2019-01-06T08:02:17.746Z,856.00
2019-01-06T08:03:17.745Z,944.00
2019-01-06T08:04:18.616Z,980.00
2019-01-06T08:05:25.733Z,1016.00
2019-01-06T08:06:17.699Z,1136.00
2019-01-06T08:07:27.649Z,1180.00
2019-01-06T08:08:26.624Z,1368.00
2019-01-06T08:09:25.653Z,1484.00
2019-01-06T08:10:26.099Z,1584.00
2019-01-06T08:11:26.588Z,1656.00
2019-01-06T08:12:25.077Z,1732.00
2019-01-06T08:13:17.631Z,1760.00
2019-01-06T08:14:25.028Z,1772.00
2019-01-06T08:15:26.533Z,1804.00
2019-01-06T08:16:17.607Z,1748.00
2019-01-06T08:17:17.597Z,1696.00
2019-01-06T08:18:19.415Z,1672.00
2019-01-06T08:19:17.562Z,1720.00
2019-01-06T08:21:11.195Z,1768.00
2019-01-06T08:22:11.169Z,1716.00
2019-01-06T08:23:11.662Z,1744.00
2019-01-06T08:24:12.140Z,1680.00
2019-01-06T08:25:11.135Z,1656.00
2019-01-06T08:26:11.136Z,1764.00
2019-01-06T08:27:11.131Z,1704.00
2019-01-06T08:28:11.675Z,1652.00
2019-01-06T08:29:12.644Z,1588.00
2019-01-06T08:30:11.083Z,1492.00
2019-01-06T08:31:11.083Z,1504.00
2019-01-06T08:32:11.648Z,1448.00
2019-01-06T08:33:11.045Z,1372.00
2019-01-06T08:34:11.046Z,1440.00
2019-01-06T08:35:11.638Z,1628.00
2019-01-06T08:36:11.669Z,1528.00
2019-01-06T08:37:11.027Z,1472.00
2019-01-06T08:38:13.667Z,1392.00
2019-01-06T08:39:10.980Z,1348.00
2019-01-06T08:40:10.999Z,1240.00
2019-01-06T08:41:12.665Z,1232.00
2019-01-06T08:42:10.950Z,1308.00
2019-01-06T08:43:10.955Z,1324.00
2019-01-06T08:44:10.941Z,1284.00
2019-01-06T08:45:10.923Z,1464.00
2019-01-06T08:46:10.901Z,1368.00
2019-01-06T08:47:11.634Z,1368.00
2019-01-06T08:48:10.885Z,1348.00
2019-01-06T08:49:10.892Z,1396.00
2019-01-06T08:50:12.674Z,1332.00
2019-01-06T08:51:11.661Z,1624.00
2019-01-06T08:52:12.662Z,1744.00
2019-01-06T08:53:13.682Z,1744.00
2019-01-06T08:54:13.703Z,1924.00
2019-01-06T08:55:13.648Z,1868.00
2019-01-06T08:56:12.661Z,2304.00
2019-01-06T08:57:13.668Z,2212.00
2019-01-06T08:58:10.780Z,2036.00
2019-01-06T08:59:10.782Z,1948.00
2019-01-06T09:00:12.182Z,2072.00
2019-01-06T09:01:10.751Z,2092.00
2019-01-06T09:02:10.732Z,2052.00
2019-01-06T09:03:10.716Z,1904.00
2019-01-06T09:04:10.712Z,1904.00
2019-01-06T09:05:15.718Z,2300.00
2019-01-06T09:06:11.180Z,2640.00
2019-01-06T09:07:10.686Z,2584.00
2019-01-06T09:08:10.662Z,2720.00
2019-01-06T09:09:10.647Z,2712.00
2019-01-06T09:10:11.651Z,2636.00
2019-01-06T09:11:10.647Z,2752.00
2019-01-06T09:12:10.680Z,3056.00
2019-01-06T09:13:10.610Z,3168.00
2019-01-06T09:14:10.607Z,3144.00
2019-01-06T09:15:10.591Z,2916.00
2019-01-06T09:16:10.601Z,2868.00
2019-01-06T09:17:10.582Z,2640.00
2019-01-06T09:18:10.574Z,2576.00
2019-01-06T09:19:10.552Z,2788.00
2019-01-06T09:20:11.171Z,2988.00
2019-01-06T09:21:11.241Z,3152.00
2019-01-06T09:22:11.161Z,3096.00
2019-01-06T09:23:11.547Z,3284.00
2019-01-06T09:24:11.499Z,3856.00
2019-01-06T09:25:10.504Z,3932.00
2019-01-06T09:26:10.474Z,3760.00
2019-01-06T09:27:10.469Z,3612.00
2019-01-06T09:28:10.459Z,3688.00
2019-01-06T09:29:10.464Z,3516.00
2019-01-06T09:30:10.442Z,3164.00
2019-01-06T09:31:10.430Z,3108.00
2019-01-06T09:32:10.409Z,3216.00
2019-01-06T09:33:10.406Z,3916.00
2019-01-06T09:34:11.175Z,4116.00
2019-01-06T09:35:11.655Z,4052.00
2019-01-06T09:36:11.174Z,4424.00
2019-01-06T09:37:11.154Z,4620.00
2019-01-06T09:38:11.182Z,4296.00
2019-01-06T09:39:10.371Z,4248.00
2019-01-06T09:40:12.173Z,3684.00
2019-01-06T09:41:10.329Z,3488.00
2019-01-06T09:42:10.307Z,3660.00
2019-01-06T09:43:10.296Z,3708.00
2019-01-06T09:44:11.151Z,3984.00
2019-01-06T09:45:14.163Z,3380.00
2019-01-06T09:46:10.285Z,3428.00
2019-01-06T09:47:14.166Z,3884.00
2019-01-06T09:48:10.426Z,3920.00
2019-01-06T09:49:12.224Z,4088.00
2019-01-06T09:50:10.217Z,3964.00
2019-01-06T09:51:10.382Z,4008.00
2019-01-06T09:52:10.194Z,4220.00
2019-01-06T09:53:11.178Z,3616.00
2019-01-06T09:54:10.778Z,2872.00
2019-01-06T09:55:10.185Z,2940.00
2019-01-06T09:56:10.189Z,2520.00
2019-01-06T09:57:12.001Z,2104.00
2019-01-06T09:58:10.137Z,1868.00
2019-01-06T09:59:10.145Z,1712.00
2019-01-06T10:00:10.114Z,2008.00
2019-01-06T10:01:10.098Z,2136.00
2019-01-06T10:02:11.227Z,2120.00
2019-01-06T10:03:10.108Z,2492.00
2019-01-06T10:04:11.114Z,2524.00
2019-01-06T10:05:10.062Z,2484.00
2019-01-06T10:06:11.131Z,2328.00
2019-01-06T10:07:11.074Z,2396.00
2019-01-06T10:08:10.715Z,2552.00
2019-01-06T10:09:10.023Z,2200.00
2019-01-06T10:10:10.018Z,1972.00
2019-01-06T10:11:11.675Z,1632.00
2019-01-06T10:12:10.040Z,1892.00
2019-01-06T10:13:11.683Z,2068.00
2019-01-06T10:14:09.984Z,2040.00
2019-01-06T10:15:13.661Z,2060.00
2019-01-06T10:16:09.981Z,2000.00
2019-01-06T10:17:10.657Z,1812.00
2019-01-06T10:18:11.673Z,2164.00
2019-01-06T10:19:09.912Z,2252.00
2019-01-06T10:20:16.692Z,2880.00
2019-01-06T10:21:09.884Z,3368.00
2019-01-06T10:22:09.888Z,3800.00
2019-01-06T10:23:10.681Z,4220.00
2019-01-06T10:24:09.876Z,4736.00
2019-01-06T10:25:10.873Z,4664.00
2019-01-06T10:26:11.154Z,5128.00
2019-01-06T10:27:11.686Z,6052.00
2019-01-06T10:28:12.672Z,5800.00
2019-01-06T10:29:09.815Z,4536.00
2019-01-06T10:30:10.679Z,4568.00
2019-01-06T10:31:09.821Z,4140.00
2019-01-06T10:32:09.780Z,3956.00
2019-01-06T10:33:09.782Z,4136.00
2019-01-06T10:34:09.757Z,4212.00
2019-01-06T10:35:09.743Z,4044.00
2019-01-06T10:36:10.711Z,4620.00
2019-01-06T10:37:09.752Z,4908.00
2019-01-06T10:38:10.720Z,4684.00
2019-01-06T10:39:09.761Z,5372.00
2019-01-06T10:40:09.684Z,5512.00
2019-01-06T10:41:09.675Z,5512.00
2019-01-06T10:42:10.180Z,5500.00
2019-01-06T10:43:09.677Z,4724.00
2019-01-06T10:44:09.653Z,4284.00
2019-01-06T10:45:09.650Z,3884.00
2019-01-06T10:46:09.627Z,3596.00
2019-01-06T10:47:10.609Z,3444.00
2019-01-06T10:48:09.597Z,3428.00
2019-01-06T10:49:09.732Z,3492.00
2019-01-06T10:50:09.609Z,3160.00
2019-01-06T10:51:09.569Z,3036.00
2019-01-06T10:52:09.563Z,2956.00
2019-01-06T10:53:09.578Z,2836.00
2019-01-06T10:54:10.206Z,2708.00
2019-01-06T10:55:09.524Z,2752.00
2019-01-06T10:56:09.518Z,2928.00
2019-01-06T10:57:11.853Z,3080.00
2019-01-06T10:58:09.502Z,3096.00
2019-01-06T10:59:09.492Z,3168.00
2019-01-06T11:00:16.856Z,3264.00
2019-01-06T11:01:09.463Z,3364.00
2019-01-06T11:02:09.460Z,3368.00
2019-01-06T11:03:10.199Z,3484.00
2019-01-06T11:04:12.206Z,3768.00
2019-01-06T11:05:12.159Z,3800.00
2019-01-06T11:06:10.166Z,3620.00
2019-01-06T11:07:11.158Z,3636.00
2019-01-06T11:08:10.142Z,3500.00
2019-01-06T11:09:12.155Z,3400.00
2019-01-06T11:10:11.239Z,3352.00
2019-01-06T11:11:10.662Z,3208.00
2019-01-06T11:12:10.162Z,3116.00
2019-01-06T11:13:09.342Z,2976.00
2019-01-06T11:14:10.198Z,2832.00
2019-01-06T11:15:09.318Z,2820.00
2019-01-06T11:16:10.170Z,2764.00
2019-01-06T11:17:12.158Z,2748.00
2019-01-06T11:18:10.212Z,2752.00
2019-01-06T11:19:09.330Z,3088.00
2019-01-06T11:20:10.184Z,3232.00
2019-01-06T11:21:10.257Z,3384.00
2019-01-06T11:22:16.196Z,3552.00
2019-01-06T11:23:09.260Z,3860.00
2019-01-06T11:24:10.206Z,3880.00
2019-01-06T11:25:12.161Z,3980.00
2019-01-06T11:26:11.175Z,4072.00
2019-01-06T11:27:09.194Z,4048.00
2019-01-06T11:28:10.651Z,4084.00
2019-01-06T11:29:09.690Z,4084.00
2019-01-06T11:30:10.653Z,4016.00
2019-01-06T11:31:09.141Z,3668.00
2019-01-06T11:32:09.769Z,3476.00
2019-01-06T11:33:12.679Z,3420.00
2019-01-06T11:34:12.178Z,3636.00
2019-01-06T11:35:10.652Z,3780.00
2019-01-06T11:36:10.143Z,3584.00
2019-01-06T11:37:09.098Z,3360.00
2019-01-06T11:38:10.648Z,3208.00
2019-01-06T11:39:09.068Z,3172.00
2019-01-06T11:40:09.075Z,3228.00
2019-01-06T11:41:10.685Z,3276.00
2019-01-06T11:42:09.659Z,3268.00
2019-01-06T11:43:09.005Z,3208.00
2019-01-06T11:44:09.682Z,3212.00
2019-01-06T11:45:09.983Z,3272.00
2019-01-06T11:46:08.969Z,3492.00
2019-01-06T11:47:10.161Z,3552.00
2019-01-06T11:48:08.953Z,3348.00
2019-01-06T11:49:08.967Z,3240.00
2019-01-06T11:50:08.981Z,3104.00
2019-01-06T11:51:08.926Z,3180.00
2019-01-06T11:52:08.943Z,3128.00
2019-01-06T11:53:19.722Z,3080.00
2019-01-06T11:54:10.674Z,3128.00
2019-01-06T11:55:09.917Z,3208.00
2019-01-06T11:56:09.683Z,3176.00
2019-01-06T11:57:10.714Z,3252.00
2019-01-06T11:58:11.700Z,3312.00
2019-01-06T11:59:13.752Z,3276.00
2019-01-06T12:00:09.737Z,3152.00
2019-01-06T12:01:12.670Z,3140.00
2019-01-06T12:02:09.671Z,3076.00
2019-01-06T12:03:10.663Z,3092.00
2019-01-06T12:04:10.672Z,3196.00
2019-01-06T12:05:09.768Z,3140.00
2019-01-06T12:06:08.772Z,3072.00
2019-01-06T12:07:14.708Z,2992.00
2019-01-06T12:08:09.720Z,3068.00
2019-01-06T12:09:09.808Z,3024.00
2019-01-06T12:10:08.729Z,3004.00
2019-01-06T12:11:12.728Z,3180.00
2019-01-06T12:12:09.258Z,3260.00
2019-01-06T12:13:11.669Z,3244.00
2019-01-06T12:14:12.166Z,3200.00
2019-01-06T12:15:08.669Z,3092.00
2019-01-06T12:16:09.255Z,3088.00
2019-01-06T12:17:08.672Z,3040.00
2019-01-06T12:18:10.201Z,2968.00
2019-01-06T12:19:10.239Z,2908.00
2019-01-06T12:20:08.618Z,2852.00
2019-01-06T12:21:11.192Z,2784.00
2019-01-06T12:22:08.589Z,2736.00
2019-01-06T12:23:08.586Z,2708.00
2019-01-06T12:24:08.607Z,2692.00
2019-01-06T12:25:08.572Z,2720.00
2019-01-06T12:26:08.556Z,2708.00
2019-01-06T12:27:13.196Z,2748.00
2019-01-06T12:28:08.523Z,2780.00
2019-01-06T12:29:23.208Z,2748.00
2019-01-06T12:30:11.204Z,2664.00
2019-01-06T12:31:09.207Z,2616.00
2019-01-06T12:32:09.159Z,2632.00
2019-01-06T12:33:09.472Z,2672.00
2019-01-06T12:34:10.194Z,2704.00
2019-01-06T12:35:09.455Z,2720.00
2019-01-06T12:36:10.208Z,2696.00
2019-01-06T12:37:09.432Z,2672.00
2019-01-06T12:38:10.236Z,2636.00
2019-01-06T12:39:08.433Z,2588.00
2019-01-06T12:40:08.396Z,2572.00
2019-01-06T12:41:09.170Z,2584.00
2019-01-06T12:42:14.671Z,2676.00
2019-01-06T12:43:12.194Z,2648.00
2019-01-06T12:44:10.188Z,2616.00
2019-01-06T12:45:08.369Z,2560.00
2019-01-06T12:46:11.178Z,2480.00
2019-01-06T12:47:08.701Z,2184.00
2019-01-06T12:48:10.165Z,2148.00
2019-01-06T12:49:09.333Z,1948.00
2019-01-06T12:50:09.302Z,1812.00